createdAt,value
2018-09-27T00:00:58.462Z,12.74
2018-09-27T00:03:27.246Z,12.73
2018-09-27T00:05:57.288Z,12.74
2018-09-27T00:08:26.673Z,12.73
2018-09-27T00:10:55.424Z,12.74
2018-09-27T00:13:24.270Z,12.74
2018-09-27T00:15:53.055Z,12.75
2018-09-27T00:18:21.954Z,12.75
2018-09-27T00:20:50.767Z,12.74
2018-09-27T00:23:19.708Z,12.74
2018-09-27T00:25:49.407Z,12.74
2018-09-27T00:28:19.104Z,12.72
2018-09-27T00:30:47.993Z,12.71
2018-09-27T00:33:17.459Z,12.69
2018-09-27T00:35:46.844Z,12.69
2018-09-27T00:38:15.959Z,12.69
2018-09-27T00:40:44.747Z,12.68
2018-09-27T00:43:14.375Z,12.66
2018-09-27T00:45:45.205Z,12.65
2018-09-27T00:48:16.750Z,12.65
2018-09-27T00:50:46.255Z,12.65
2018-09-27T00:53:15.703Z,12.65
2018-09-27T00:55:44.474Z,12.64
2018-09-27T00:58:13.926Z,12.63
2018-09-27T01:00:43.465Z,12.64
2018-09-27T01:03:13.369Z,12.63
2018-09-27T01:05:42.223Z,12.64
2018-09-27T01:08:11.056Z,12.64
2018-09-27T01:10:39.981Z,12.63
2018-09-27T01:13:08.826Z,12.63
2018-09-27T01:15:37.819Z,12.63
2018-09-27T01:18:06.800Z,12.64
2018-09-27T01:20:35.709Z,12.64
2018-09-27T01:23:04.518Z,12.65
2018-09-27T01:25:33.872Z,12.64
2018-09-27T01:28:03.210Z,12.63
2018-09-27T01:30:31.978Z,12.64
2018-09-27T01:33:00.731Z,12.63
2018-09-27T01:35:30.144Z,12.64
2018-09-27T01:37:58.928Z,12.63
2018-09-27T01:40:27.870Z,12.62
2018-09-27T01:42:57.255Z,12.61
2018-09-27T01:45:26.938Z,12.61
2018-09-27T01:47:55.744Z,12.61
2018-09-27T01:50:24.578Z,12.60
2018-09-27T01:52:54.628Z,12.59
2018-09-27T01:55:23.444Z,12.55
2018-09-27T01:57:53.148Z,12.55
2018-09-27T02:00:22.739Z,12.53
2018-09-27T02:02:51.499Z,12.52
2018-09-27T02:05:20.460Z,12.52
2018-09-27T02:07:49.268Z,12.52
2018-09-27T02:10:18.402Z,12.51
2018-09-27T02:12:47.531Z,12.50
2018-09-27T02:15:16.545Z,12.49
2018-09-27T02:17:45.420Z,12.50
2018-09-27T02:20:14.829Z,12.48
2018-09-27T02:22:43.639Z,12.49
2018-09-27T02:25:12.911Z,12.50
2018-09-27T02:27:42.632Z,12.49
2018-09-27T02:30:11.471Z,12.48
2018-09-27T02:32:40.222Z,12.45
2018-09-27T02:35:10.351Z,12.45
2018-09-27T02:37:39.352Z,12.42
2018-09-27T02:40:09.412Z,12.40
2018-09-27T02:42:38.897Z,12.41
2018-09-27T02:45:08.348Z,12.41
2018-09-27T02:47:37.189Z,12.40
2018-09-27T02:50:05.972Z,12.39
2018-09-27T02:52:35.328Z,12.37
2018-09-27T02:55:04.161Z,12.35
2018-09-27T02:57:33.901Z,12.33
2018-09-27T03:00:03.547Z,12.32
2018-09-27T03:02:32.362Z,12.29
2018-09-27T03:05:01.139Z,12.24
2018-09-27T03:07:30.009Z,12.21
2018-09-27T03:09:58.816Z,12.18
2018-09-27T03:12:27.749Z,12.12
2018-09-27T03:14:56.612Z,12.09
2018-09-27T03:17:25.466Z,12.07
2018-09-27T03:19:54.275Z,12.04
2018-09-27T03:22:23.524Z,12.01
2018-09-27T03:24:53.066Z,11.99
2018-09-27T03:27:22.460Z,11.97
2018-09-27T03:29:51.279Z,11.95
2018-09-27T03:32:20.095Z,11.92
2018-09-27T03:34:49.699Z,11.90
2018-09-27T03:37:18.696Z,11.89
2018-09-27T03:39:48.125Z,11.88
2018-09-27T03:42:17.083Z,11.87
2018-09-27T03:44:46.149Z,11.86
2018-09-27T03:47:14.991Z,11.81
2018-09-27T03:49:43.783Z,11.75
2018-09-27T03:52:13.443Z,11.68
2018-09-27T03:54:42.890Z,11.64
2018-09-27T03:57:11.700Z,11.58
2018-09-27T03:59:42.874Z,11.55
2018-09-27T04:02:11.712Z,11.54
2018-09-27T04:04:41.421Z,11.54
2018-09-27T04:07:11.100Z,11.52
2018-09-27T04:09:39.882Z,11.50
2018-09-27T04:12:09.489Z,11.50
2018-09-27T04:14:38.316Z,11.49
2018-09-27T04:17:07.420Z,11.48
2018-09-27T04:19:36.466Z,11.47
2018-09-27T04:22:06.248Z,11.44
2018-09-27T04:24:35.950Z,11.44
2018-09-27T04:27:05.563Z,11.41
2018-09-27T04:29:34.373Z,11.37
2018-09-27T04:32:03.178Z,11.35
2018-09-27T04:34:32.574Z,11.33
2018-09-27T04:37:02.120Z,11.32
2018-09-27T04:39:31.041Z,11.30
2018-09-27T04:41:59.865Z,11.25
2018-09-27T04:44:29.249Z,11.24
2018-09-27T04:46:58.069Z,11.21
2018-09-27T04:49:27.020Z,11.15
2018-09-27T04:51:56.559Z,11.12
2018-09-27T04:54:25.709Z,11.08
2018-09-27T04:56:54.528Z,11.04
2018-09-27T04:59:24.212Z,11.00
2018-09-27T05:01:53.100Z,10.99
2018-09-27T05:04:22.038Z,10.97
2018-09-27T05:06:50.896Z,10.93
2018-09-27T05:09:20.223Z,10.91
2018-09-27T05:11:49.147Z,10.87
2018-09-27T05:14:18.283Z,10.87
2018-09-27T05:16:48.527Z,10.88
2018-09-27T05:19:17.633Z,10.89
2018-09-27T05:21:46.615Z,10.91
2018-09-27T05:24:15.564Z,10.93
2018-09-27T05:26:45.615Z,10.93
2018-09-27T05:29:14.943Z,10.99
2018-09-27T05:31:43.775Z,11.05
2018-09-27T05:34:13.482Z,11.12
2018-09-27T05:36:42.301Z,11.18
2018-09-27T05:39:11.780Z,11.26
2018-09-27T05:41:40.728Z,11.35
2018-09-27T05:44:10.008Z,11.42
2018-09-27T05:46:39.149Z,11.45
2018-09-27T05:49:08.090Z,11.52
2018-09-27T05:51:37.854Z,11.59
2018-09-27T05:54:06.623Z,11.61
2018-09-27T05:56:35.465Z,11.62
2018-09-27T05:59:04.984Z,11.61
2018-09-27T06:01:33.799Z,11.66
2018-09-27T06:04:02.634Z,11.71
2018-09-27T06:06:32.264Z,11.72
2018-09-27T06:09:01.073Z,11.77
2018-09-27T06:11:30.036Z,11.83
2018-09-27T06:13:58.892Z,11.85
2018-09-27T06:16:27.768Z,11.82
2018-09-27T06:18:57.066Z,11.85
2018-09-27T06:21:26.451Z,11.88
2018-09-27T06:23:55.305Z,11.95
2018-09-27T06:26:24.841Z,12.04
2018-09-27T06:28:54.294Z,12.15
2018-09-27T06:31:23.732Z,12.28
2018-09-27T06:33:52.572Z,12.43
2018-09-27T06:36:22.300Z,12.50
2018-09-27T06:38:51.158Z,12.53
2018-09-27T06:41:20.497Z,12.54
2018-09-27T06:43:49.385Z,12.58
2018-09-27T06:46:19.100Z,12.57
2018-09-27T06:48:48.960Z,12.56
2018-09-27T06:51:18.924Z,12.51
2018-09-27T06:53:48.727Z,12.49
2018-09-27T06:56:18.186Z,12.53
2018-09-27T06:58:48.021Z,12.61
2018-09-27T07:01:23.446Z,12.68
2018-09-27T07:03:52.391Z,12.80
2018-09-27T07:06:21.712Z,12.85
2018-09-27T07:08:50.754Z,12.90
2018-09-27T07:11:19.798Z,13.03
2018-09-27T07:13:48.893Z,13.11
2018-09-27T07:16:17.991Z,13.15
2018-09-27T07:18:46.929Z,13.26
2018-09-27T07:21:17.136Z,13.31
2018-09-27T07:23:45.993Z,13.35
2018-09-27T07:26:15.742Z,13.40
2018-09-27T07:28:45.548Z,13.43
2018-09-27T07:31:14.800Z,13.51
2018-09-27T07:33:43.731Z,13.57
2018-09-27T07:36:13.299Z,13.68
2018-09-27T07:38:42.347Z,13.72
2018-09-27T07:41:11.139Z,13.72
2018-09-27T07:43:40.089Z,13.78
2018-09-27T07:46:10.036Z,13.90
2018-09-27T07:48:38.977Z,13.95
2018-09-27T07:51:08.434Z,13.99
2018-09-27T07:53:38.453Z,14.01
2018-09-27T07:56:07.442Z,14.09
2018-09-27T07:58:36.845Z,14.21
2018-09-27T08:01:06.422Z,14.35
2018-09-27T08:03:35.343Z,14.44
2018-09-27T08:06:04.265Z,14.50
2018-09-27T08:08:33.354Z,14.63
2018-09-27T08:11:02.141Z,14.71
2018-09-27T08:13:31.221Z,14.67
2018-09-27T08:16:00.249Z,14.66
2018-09-27T08:18:29.173Z,14.73
2018-09-27T08:20:58.156Z,14.72
2018-09-27T08:23:27.597Z,14.77
2018-09-27T08:25:57.006Z,14.81
2018-09-27T08:28:26.353Z,14.83
2018-09-27T08:30:55.397Z,14.93
2018-09-27T08:33:24.322Z,15.04
2018-09-27T08:35:53.592Z,15.04
2018-09-27T08:38:22.482Z,15.11
2018-09-27T08:40:51.311Z,15.17
2018-09-27T08:43:20.936Z,15.22
2018-09-27T08:45:49.801Z,15.26
2018-09-27T08:48:19.033Z,15.22
2018-09-27T08:50:48.759Z,15.17
2018-09-27T08:53:19.124Z,15.15
2018-09-27T08:55:48.227Z,15.14
2018-09-27T08:58:18.626Z,15.08
2018-09-27T09:00:48.643Z,15.07
2018-09-27T09:03:17.679Z,15.11
2018-09-27T09:05:46.809Z,15.16
2018-09-27T09:08:16.240Z,15.20
2018-09-27T09:10:45.090Z,15.22
2018-09-27T09:13:14.048Z,15.22
2018-09-27T09:18:25.913Z,15.33
2018-09-27T09:20:54.818Z,15.37
2018-09-27T09:23:24.516Z,15.43
2018-09-27T09:25:54.579Z,15.45
2018-09-27T09:28:24.214Z,15.54
2018-09-27T09:30:53.289Z,15.64
2018-09-27T09:33:22.213Z,15.78
2018-09-27T09:35:52.359Z,15.88
2018-09-27T09:38:21.401Z,15.94
2018-09-27T09:40:51.007Z,15.92
2018-09-27T09:43:20.043Z,15.86
2018-09-27T09:45:52.903Z,15.96
2018-09-27T09:48:22.213Z,15.98
2018-09-27T09:50:51.335Z,16.07
2018-09-27T09:53:27.041Z,16.10
2018-09-27T09:56:02.894Z,16.17
2018-09-27T09:59:04.083Z,16.19
2018-09-27T10:01:33.184Z,16.12
2018-09-27T10:06:53.397Z,16.20
2018-09-27T10:09:22.963Z,16.26
2018-09-27T10:11:52.158Z,16.26
2018-09-27T10:14:22.728Z,16.25
2018-09-27T10:17:07.132Z,16.21
2018-09-27T10:22:27.912Z,16.21
2018-09-27T10:25:00.404Z,16.27
2018-09-27T10:27:44.907Z,16.32
2018-09-27T10:30:21.605Z,16.45
2018-09-27T10:33:06.755Z,16.55
2018-09-27T10:39:17.688Z,16.62
2018-09-27T10:47:10.577Z,16.52
2018-09-27T10:50:33.399Z,16.54
2018-09-27T10:53:03.360Z,16.53
2018-09-27T10:55:43.860Z,16.40
2018-09-27T10:58:13.536Z,16.23
2018-09-27T11:00:43.379Z,16.13
2018-09-27T11:03:12.385Z,16.07
2018-09-27T11:05:41.675Z,16.02
2018-09-27T11:08:10.670Z,15.89
2018-09-27T11:10:39.737Z,15.68
2018-09-27T11:13:09.499Z,15.64
2018-09-27T11:15:39.082Z,15.62
2018-09-27T11:18:08.132Z,15.57
2018-09-27T11:20:38.001Z,15.54
2018-09-27T11:23:07.022Z,15.49
2018-09-27T11:25:36.583Z,15.46
2018-09-27T11:28:05.914Z,15.46
2018-09-27T11:30:35.634Z,15.44
2018-09-27T11:33:04.605Z,15.35
2018-09-27T11:35:34.244Z,15.26
2018-09-27T11:38:03.241Z,15.15
2018-09-27T11:40:32.125Z,15.05
2018-09-27T11:43:01.100Z,14.98
2018-09-27T11:45:30.548Z,14.94
2018-09-27T11:47:59.448Z,14.92
2018-09-27T11:50:28.306Z,14.91
2018-09-27T11:52:58.816Z,14.86
2018-09-27T11:55:27.724Z,14.88
2018-09-27T11:57:57.439Z,14.90
2018-09-27T12:00:27.015Z,14.88
2018-09-27T12:02:55.888Z,14.86
2018-09-27T12:05:24.779Z,14.84
2018-09-27T12:07:53.724Z,14.80
2018-09-27T12:10:22.708Z,14.78
2018-09-27T12:12:51.738Z,14.71
2018-09-27T12:15:20.988Z,14.66
2018-09-27T12:17:50.867Z,14.60
2018-09-27T12:20:19.841Z,14.57
2018-09-27T12:22:48.962Z,14.54
2018-09-27T12:25:19.206Z,14.51
2018-09-27T12:27:49.078Z,14.51
2018-09-27T12:30:18.191Z,14.42
2018-09-27T12:32:48.036Z,14.36
2018-09-27T12:35:17.844Z,14.32
2018-09-27T12:37:46.929Z,14.31
2018-09-27T12:40:16.505Z,14.28
2018-09-27T12:42:45.542Z,14.27
2018-09-27T12:45:14.746Z,14.25
2018-09-27T12:47:43.837Z,14.22
2018-09-27T12:50:12.821Z,14.20
2018-09-27T12:52:42.597Z,14.17
2018-09-27T12:55:17.198Z,14.17
2018-09-27T12:57:46.825Z,14.12
2018-09-27T13:00:16.782Z,14.01
2018-09-27T13:02:45.734Z,13.96
2018-09-27T13:05:15.187Z,13.92
2018-09-27T13:07:49.363Z,13.88
2018-09-27T13:10:19.670Z,13.88
2018-09-27T13:12:49.158Z,13.88
2018-09-27T13:15:19.510Z,13.83
2018-09-27T13:18:02.424Z,13.83
2018-09-27T13:20:32.242Z,13.81
2018-09-27T13:23:03.280Z,13.73
2018-09-27T13:25:32.892Z,13.62
2018-09-27T13:28:02.404Z,13.59
2018-09-27T13:30:31.801Z,13.56
2018-09-27T13:33:00.883Z,13.56
2018-09-27T13:35:30.516Z,13.53
2018-09-27T13:37:59.339Z,13.58
2018-09-27T13:40:28.224Z,13.54
2018-09-27T13:42:57.130Z,13.55
2018-09-27T13:45:25.979Z,13.53
2018-09-27T13:47:55.178Z,13.53
2018-09-27T13:50:24.229Z,13.52
2018-09-27T13:52:53.549Z,13.52
2018-09-27T13:55:22.378Z,13.57
2018-09-27T13:57:52.141Z,13.60
2018-09-27T14:00:21.724Z,13.63
2018-09-27T14:02:51.173Z,13.67
2018-09-27T14:05:20.128Z,13.72
2018-09-27T14:07:49.965Z,13.74
2018-09-27T14:10:19.312Z,13.73
2018-09-27T14:12:48.909Z,13.75
2018-09-27T14:15:18.077Z,13.76
2018-09-27T14:17:47.077Z,13.77
2018-09-27T14:20:16.092Z,13.80
2018-09-27T14:22:44.991Z,13.84
2018-09-27T14:25:14.649Z,13.88
2018-09-27T14:27:44.273Z,13.94
2018-09-27T14:30:13.912Z,14.01
2018-09-27T14:32:43.469Z,14.05
2018-09-27T14:35:13.027Z,14.13
2018-09-27T14:37:41.934Z,14.21
2018-09-27T14:40:10.956Z,14.36
2018-09-27T14:42:40.011Z,14.49
2018-09-27T14:45:08.939Z,14.68
2018-09-27T14:47:38.002Z,14.85
2018-09-27T14:50:07.738Z,15.06
2018-09-27T14:52:37.255Z,15.25
2018-09-27T14:55:06.759Z,15.36
2018-09-27T14:57:35.637Z,15.44
2018-09-27T15:00:05.585Z,15.53
2018-09-27T15:02:35.413Z,15.56
2018-09-27T15:05:04.788Z,15.59
2018-09-27T15:07:34.100Z,15.65
2018-09-27T15:10:03.567Z,15.71
2018-09-27T15:12:32.641Z,15.78
2018-09-27T15:15:01.536Z,15.84
2018-09-27T15:17:30.584Z,15.89
2018-09-27T15:19:59.441Z,15.95
2018-09-27T15:22:28.503Z,15.97
2018-09-27T15:24:57.733Z,16.00
2018-09-27T15:27:27.858Z,16.00
2018-09-27T15:29:57.378Z,16.02
2018-09-27T15:32:26.226Z,16.01
2018-09-27T15:34:55.886Z,16.03
2018-09-27T15:37:24.880Z,16.02
2018-09-27T15:39:53.818Z,16.04
2018-09-27T15:42:22.686Z,16.07
2018-09-27T15:44:51.705Z,16.09
2018-09-27T15:47:20.718Z,16.12
2018-09-27T15:49:49.645Z,16.14
2018-09-27T15:52:20.754Z,16.14
2018-09-27T15:54:49.689Z,16.16
2018-09-27T15:57:19.586Z,16.19
2018-09-27T15:59:50.738Z,16.19
2018-09-27T16:02:19.589Z,16.22
2018-09-27T16:04:49.066Z,16.21
2018-09-27T16:07:19.413Z,16.23
2018-09-27T16:09:49.921Z,16.24
2018-09-27T16:12:19.754Z,16.27
2018-09-27T16:14:48.984Z,16.28
2018-09-27T16:17:18.756Z,16.30
2018-09-27T16:19:50.517Z,16.30
2018-09-27T16:22:19.529Z,16.30
2018-09-27T16:24:49.579Z,16.30
2018-09-27T16:30:04.972Z,16.32
2018-09-27T16:32:35.369Z,16.33
2018-09-27T16:35:07.333Z,16.32
2018-09-27T16:37:36.684Z,16.30
2018-09-27T16:40:08.316Z,16.28
2018-09-27T16:47:22.312Z,16.27
2018-09-27T16:49:51.185Z,16.25
2018-09-27T16:52:20.765Z,16.23
2018-09-27T16:54:49.633Z,16.22
2018-09-27T16:57:18.704Z,16.21
2018-09-27T16:59:48.184Z,16.19
2018-09-27T17:02:17.196Z,16.14
2018-09-27T17:04:46.884Z,16.11
2018-09-27T17:07:16.494Z,16.07
2018-09-27T17:09:46.127Z,16.03
2018-09-27T17:12:15.024Z,15.99
2018-09-27T17:14:44.443Z,15.97
2018-09-27T17:17:13.371Z,15.93
2018-09-27T17:19:42.355Z,15.88
2018-09-27T17:22:12.144Z,15.82
2018-09-27T17:24:41.780Z,15.78
2018-09-27T17:27:11.230Z,15.73
2018-09-27T17:29:40.118Z,15.67
2018-09-27T17:32:09.328Z,15.64
2018-09-27T17:34:39.012Z,15.57
2018-09-27T17:37:08.045Z,15.50
2018-09-27T17:39:37.506Z,15.41
2018-09-27T17:42:06.608Z,15.29
2018-09-27T17:44:35.526Z,15.13
2018-09-27T17:47:04.682Z,15.01
2018-09-27T17:49:33.704Z,14.94
2018-09-27T17:52:03.192Z,14.84
2018-09-27T17:54:32.053Z,14.78
2018-09-27T17:57:00.872Z,14.70
2018-09-27T17:59:30.321Z,14.66
2018-09-27T18:01:59.676Z,14.62
2018-09-27T18:04:28.510Z,14.56
2018-09-27T18:06:58.079Z,14.52
2018-09-27T18:09:28.320Z,14.49
2018-09-27T18:11:57.159Z,14.48
2018-09-27T18:14:26.011Z,14.47
2018-09-27T18:16:54.892Z,14.45
2018-09-27T18:19:24.417Z,14.46
2018-09-27T18:21:53.267Z,14.47
2018-09-27T18:24:22.564Z,14.49
2018-09-27T18:26:51.908Z,14.51
2018-09-27T18:29:21.351Z,14.52
2018-09-27T18:31:50.204Z,14.51
2018-09-27T18:34:19.620Z,14.50
2018-09-27T18:36:49.281Z,14.48
2018-09-27T18:39:18.285Z,14.47
2018-09-27T18:41:48.551Z,14.45
2018-09-27T18:44:17.581Z,14.44
2018-09-27T18:46:46.976Z,14.43
2018-09-27T18:49:16.042Z,14.43
2018-09-27T18:51:46.809Z,14.42
2018-09-27T18:54:15.728Z,14.40
2018-09-27T18:56:44.958Z,14.40
2018-09-27T18:59:14.675Z,14.40
2018-09-27T19:01:44.073Z,14.41
2018-09-27T19:04:12.877Z,14.40
2018-09-27T19:06:42.618Z,14.41
2018-09-27T19:09:12.232Z,14.42
2018-09-27T19:11:41.176Z,14.43
2018-09-27T19:14:10.304Z,14.46
2018-09-27T19:16:39.978Z,14.46
2018-09-27T19:19:09.843Z,14.49
2018-09-27T19:21:39.068Z,14.51
2018-09-27T19:24:09.732Z,14.51
2018-09-27T19:26:39.256Z,14.51
2018-09-27T19:29:08.940Z,14.52
2018-09-27T19:31:40.169Z,14.55
2018-09-27T19:39:30.251Z,14.56
2018-09-27T19:41:59.079Z,14.59
2018-09-27T19:44:27.992Z,14.61
2018-09-27T19:46:56.838Z,14.63
2018-09-27T19:49:25.748Z,14.65
2018-09-27T19:51:55.844Z,14.64
2018-09-27T19:54:24.692Z,14.61
2018-09-27T19:56:53.621Z,14.61
2018-09-27T19:59:24.548Z,14.60
2018-09-27T20:01:53.946Z,14.59
2018-09-27T20:04:22.794Z,14.58
2018-09-27T20:06:52.248Z,14.58
2018-09-27T20:09:21.764Z,14.58
2018-09-27T20:11:50.624Z,14.58
2018-09-27T20:14:20.196Z,14.53
2018-09-27T20:16:49.173Z,14.53
2018-09-27T20:19:18.506Z,14.50
2018-09-27T20:21:47.941Z,14.40
2018-09-27T20:24:18.060Z,14.33
2018-09-27T20:26:47.150Z,14.24
2018-09-27T20:29:17.118Z,14.12
2018-09-27T20:31:46.397Z,14.01
2018-09-27T20:34:16.484Z,13.89
2018-09-27T20:36:45.461Z,13.75
2018-09-27T20:39:14.849Z,13.66
2018-09-27T20:41:43.749Z,13.57
2018-09-27T20:44:12.572Z,13.49
2018-09-27T20:46:41.483Z,13.42
2018-09-27T20:49:10.307Z,13.38
2018-09-27T20:51:40.108Z,13.35
2018-09-27T20:54:09.094Z,13.31
2018-09-27T20:56:38.582Z,13.28
2018-09-27T20:59:08.629Z,13.28
2018-09-27T21:01:37.740Z,13.17
2018-09-27T21:04:06.632Z,12.95
2018-09-27T21:06:35.673Z,12.68
2018-09-27T21:09:06.635Z,12.41
2018-09-27T21:11:36.588Z,12.20
2018-09-27T21:14:05.455Z,12.08
2018-09-27T21:16:34.326Z,11.99
2018-09-27T21:19:03.210Z,11.89
2018-09-27T21:21:31.996Z,11.81
2018-09-27T21:24:00.957Z,11.73
2018-09-27T21:26:31.023Z,11.67
2018-09-27T21:29:00.344Z,11.59
2018-09-27T21:31:29.140Z,11.54
2018-09-27T21:33:58.006Z,11.49
2018-09-27T21:36:27.733Z,11.47
2018-09-27T21:38:56.571Z,11.45
2018-09-27T21:41:25.448Z,11.43
2018-09-27T21:43:54.275Z,11.40
2018-09-27T21:46:24.043Z,11.39
2018-09-27T21:48:52.835Z,11.38
2018-09-27T21:51:22.108Z,11.33
2018-09-27T21:53:51.675Z,11.26
2018-09-27T21:56:20.424Z,11.21
2018-09-27T21:58:49.827Z,11.16
2018-09-27T22:01:19.463Z,11.08
2018-09-27T22:03:48.543Z,11.03
2018-09-27T22:06:17.614Z,10.98
2018-09-27T22:08:47.138Z,10.95
2018-09-27T22:11:16.597Z,10.91
2018-09-27T22:13:45.479Z,10.87
2018-09-27T22:16:15.047Z,10.84
2018-09-27T22:18:44.099Z,10.82
2018-09-27T22:21:12.965Z,10.79
2018-09-27T22:23:41.857Z,10.76
2018-09-27T22:26:11.264Z,10.75
2018-09-27T22:28:41.032Z,10.71
2018-09-27T22:31:09.838Z,10.66
2018-09-27T22:33:38.672Z,10.64
2018-09-27T22:36:08.043Z,10.58
2018-09-27T22:38:37.247Z,10.55
2018-09-27T22:41:06.186Z,10.52
2018-09-27T22:43:35.212Z,10.48
2018-09-27T22:46:04.100Z,10.45
2018-09-27T22:48:33.137Z,10.40
2018-09-27T22:51:02.871Z,10.33
2018-09-27T22:53:32.296Z,10.26
2018-09-27T22:56:01.232Z,10.18
2018-09-27T22:58:31.366Z,10.11
2018-09-27T23:01:00.763Z,10.03
2018-09-27T23:03:29.591Z,9.95
2018-09-27T23:05:58.496Z,9.89
2018-09-27T23:08:27.947Z,9.84
2018-09-27T23:10:56.876Z,9.77
2018-09-27T23:13:25.707Z,9.71
2018-09-27T23:15:54.555Z,9.64
2018-09-27T23:18:25.464Z,9.59
2018-09-27T23:20:54.311Z,9.54
2018-09-27T23:23:23.115Z,9.50
2018-09-27T23:25:52.564Z,9.46
2018-09-27T23:28:21.889Z,9.43
2018-09-27T23:30:50.767Z,9.42
2018-09-27T23:33:20.565Z,9.39
2018-09-27T23:35:50.187Z,9.38
2018-09-27T23:38:19.421Z,9.36
2018-09-27T23:40:48.586Z,9.35
2018-09-27T23:43:17.713Z,9.34
2018-09-27T23:45:46.560Z,9.36
2018-09-27T23:48:16.450Z,9.38
2018-09-27T23:50:45.275Z,9.40
2018-09-27T23:53:14.779Z,9.43
2018-09-27T23:55:43.786Z,9.45
2018-09-27T23:58:13.280Z,9.47
